Time;durP1;ratioP1;P1;durP2;ratioP2;P2;SDS_P1;SDS_P2;PMS_P1;PMS_P2;Temp;Humidity;BMP_temperature;BMP_pressure;BME280_temperature;BME280_humidity;BME280_pressure;Samples;Min_cycle;Max_cycle;Signal;HPM_P1;HPM_P2
2024/01/02 00:01:07;;;;;;;20.58;13.35;;;6.10;99.90;;;;;;5007996;28;20041;-79
2024/01/02 00:03:34;;;;;;;16.95;12.15;;;6.10;99.90;;;;;;5027136;28;20132;-81
2024/01/02 00:06:01;;;;;;;20.23;12.05;;;6.00;99.90;;;;;;5034438;28;20553;-80
2024/01/02 00:08:28;;;;;;;26.00;11.25;;;6.00;99.90;;;;;;5038965;28;20045;-80
2024/01/02 00:10:55;;;;;;;16.55;11.65;;;6.00;99.90;;;;;;5021033;28;20042;-80
2024/01/02 00:13:22;;;;;;;19.75;10.88;;;5.90;99.90;;;;;;5037644;28;20065;-80
2024/01/02 00:15:49;;;;;;;15.57;10.60;;;5.90;99.90;;;;;;5030339;28;20033;-80
2024/01/02 00:18:16;;;;;;;21.15;10.57;;;5.90;99.90;;;;;;5004092;28;20064;-80
2024/01/02 00:20:43;;;;;;;15.82;9.48;;;5.80;99.90;;;;;;5034172;28;20041;-80
2024/01/02 00:23:10;;;;;;;21.67;8.60;;;5.80;99.90;;;;;;5036620;28;20050;-80
2024/01/02 00:25:37;;;;;;;27.08;8.73;;;5.80;99.90;;;;;;4996702;28;20060;-82
2024/01/02 00:28:04;;;;;;;24.30;6.93;;;5.70;99.90;;;;;;5006695;28;20519;-82
2024/01/02 00:30:34;;;;;;;17.75;7.03;;;5.60;99.90;;;;;;5009195;28;20122;-81
2024/01/02 00:33:04;;;;;;;24.52;6.65;;;5.60;99.90;;;;;;5014012;28;20050;-80
2024/01/02 00:35:32;;;;;;;18.55;6.10;;;5.60;99.90;;;;;;5023032;28;20067;-79
2024/01/02 00:38:00;;;;;;;22.45;8.13;;;5.60;99.90;;;;;;5030249;28;20080;-79
2024/01/02 00:40:27;;;;;;;26.98;5.82;;;5.60;99.90;;;;;;5037634;28;20048;-81
2024/01/02 00:42:53;;;;;;;19.08;6.25;;;5.60;99.90;;;;;;5030312;28;20041;-79
2024/01/02 00:45:20;;;;;;;20.48;5.85;;;5.50;99.90;;;;;;5055108;28;20073;-79
2024/01/02 00:47:47;;;;;;;15.48;5.30;;;5.50;99.90;;;;;;5007532;28;20056;-80
2024/01/02 00:50:14;;;;;;;19.92;6.43;;;5.50;99.90;;;;;;5006565;28;20124;-79
2024/01/02 00:52:41;;;;;;;23.63;5.07;;;5.50;99.90;;;;;;5010954;28;20064;-80
2024/01/02 00:55:08;;;;;;;23.65;4.95;;;5.50;99.90;;;;;;5030894;28;20111;-81
2024/01/02 00:57:35;;;;;;;17.40;4.55;;;5.50;99.90;;;;;;5022713;28;20038;-79
2024/01/02 01:00:04;;;;;;;24.88;4.40;;;5.40;99.90;;;;;;5035261;28;20527;-79
2024/01/02 01:02:31;;;;;;;13.90;4.47;;;5.50;99.90;;;;;;5027179;28;20048;-77
2024/01/02 01:04:58;;;;;;;15.95;4.20;;;5.50;99.90;;;;;;5028720;28;20132;-79
2024/01/02 01:07:25;;;;;;;22.67;5.43;;;5.50;99.90;;;;;;5027863;28;20053;-78
2024/01/02 01:09:51;;;;;;;16.27;5.03;;;5.40;99.90;;;;;;5021935;28;20037;-79
2024/01/02 01:12:19;;;;;;;21.85;5.05;;;5.50;99.90;;;;;;5028763;28;20098;-79
2024/01/02 01:14:46;;;;;;;12.88;3.65;;;5.40;99.90;;;;;;5011519;28;20045;-80
2024/01/02 01:17:13;;;;;;;16.15;3.75;;;5.50;99.90;;;;;;5030765;28;20051;-81
2024/01/02 01:19:41;;;;;;;14.00;3.50;;;5.50;99.90;;;;;;5032739;28;20572;-80
2024/01/02 01:22:07;;;;;;;15.82;4.43;;;5.50;99.90;;;;;;5025190;28;21566;-82
2024/01/02 01:24:34;;;;;;;9.98;3.83;;;5.50;99.90;;;;;;4993297;28;20045;-80
2024/01/02 01:27:01;;;;;;;15.68;4.72;;;5.60;99.90;;;;;;5008847;28;20755;-80
2024/01/02 01:29:27;;;;;;;9.38;3.17;;;5.50;99.90;;;;;;5012459;28;20068;-80
2024/01/02 01:31:54;;;;;;;15.57;4.13;;;5.50;99.90;;;;;;5016209;28;20045;-79
2024/01/02 01:34:21;;;;;;;10.32;3.88;;;5.60;99.90;;;;;;5036244;28;20053;-79
2024/01/02 01:36:48;;;;;;;14.45;4.00;;;5.50;99.90;;;;;;5032567;28;20555;-81
2024/01/02 01:39:15;;;;;;;9.18;3.75;;;5.60;99.90;;;;;;5040861;28;20060;-80
2024/01/02 01:41:42;;;;;;;19.13;3.67;;;5.50;99.90;;;;;;5036431;28;20041;-82
2024/01/02 01:44:11;;;;;;;10.95;3.28;;;5.50;99.90;;;;;;5034557;28;20033;-81
2024/01/02 01:46:40;;;;;;;11.63;2.70;;;5.60;99.90;;;;;;5021622;28;20060;-81
2024/01/02 01:49:09;;;;;;;9.95;2.95;;;5.60;99.90;;;;;;5027134;28;20542;-82
2024/01/02 01:51:40;;;;;;;10.95;3.88;;;5.50;99.90;;;;;;5018834;28;20119;-83
2024/01/02 01:54:07;;;;;;;12.10;2.65;;;5.50;99.90;;;;;;5035549;28;20045;-82
2024/01/02 01:56:34;;;;;;;7.65;3.20;;;5.50;99.90;;;;;;5012214;28;20660;-81
2024/01/02 01:59:04;;;;;;;8.25;3.47;;;5.60;99.90;;;;;;5008452;28;20122;-81
2024/01/02 02:01:33;;;;;;;12.63;2.75;;;5.60;99.90;;;;;;5044389;28;20056;-80
2024/01/02 02:04:00;;;;;;;10.00;3.20;;;5.60;99.90;;;;;;5030052;28;20044;-79
2024/01/02 02:06:27;;;;;;;6.95;2.83;;;5.60;99.90;;;;;;5039882;28;20055;-78
2024/01/02 02:08:54;;;;;;;9.00;2.80;;;5.60;99.90;;;;;;5036248;28;20240;-79
2024/01/02 02:11:21;;;;;;;11.80;3.30;;;5.60;99.90;;;;;;5013294;28;20056;-80
2024/01/02 02:13:48;;;;;;;8.82;2.15;;;5.60;99.90;;;;;;4988593;28;20038;-80
2024/01/02 02:16:15;;;;;;;18.38;4.05;;;5.60;99.90;;;;;;5005027;28;20041;-81
2024/01/02 02:18:42;;;;;;;11.68;3.13;;;5.70;99.90;;;;;;5023680;28;20044;-80
2024/01/02 02:21:09;;;;;;;8.05;2.60;;;5.70;99.90;;;;;;5032709;28;20044;-80
2024/01/02 02:23:36;;;;;;;9.40;2.22;;;5.70;99.90;;;;;;5021588;28;20053;-82
2024/01/02 02:26:03;;;;;;;10.75;3.67;;;5.60;99.90;;;;;;5031908;28;20041;-79
2024/01/02 02:28:30;;;;;;;11.98;3.08;;;5.60;99.90;;;;;;5038279;28;20052;-81
2024/01/02 02:30:57;;;;;;;7.15;2.60;;;5.60;99.90;;;;;;5035416;28;20762;-80
2024/01/02 02:33:24;;;;;;;12.25;3.25;;;5.70;99.90;;;;;;5036665;28;20555;-78
2024/01/02 02:35:51;;;;;;;5.03;2.00;;;5.70;99.90;;;;;;5030537;28;20530;-82
2024/01/02 02:38:18;;;;;;;6.15;2.10;;;5.70;99.90;;;;;;5059062;28;20048;-81
2024/01/02 02:40:45;;;;;;;15.55;3.25;;;5.70;99.90;;;;;;5036090;28;20049;-79
2024/01/02 02:43:11;;;;;;;10.52;2.72;;;5.70;99.90;;;;;;5031535;28;21134;-82
2024/01/02 02:45:38;;;;;;;8.90;2.38;;;5.70;99.90;;;;;;5031270;28;20691;-81
2024/01/02 02:48:05;;;;;;;4.80;2.22;;;5.70;99.90;;;;;;5030156;28;20029;-79
2024/01/02 02:50:33;;;;;;;12.93;2.88;;;5.70;99.90;;;;;;5053049;28;20430;-80
2024/01/02 02:53:00;;;;;;;15.27;3.40;;;5.80;99.90;;;;;;5024872;28;20041;-81
2024/01/02 02:55:27;;;;;;;9.85;3.40;;;5.80;99.90;;;;;;5017291;28;20056;-79
2024/01/02 02:57:53;;;;;;;8.60;3.05;;;5.80;99.90;;;;;;5032637;28;20053;-80
2024/01/02 03:00:21;;;;;;;5.57;2.63;;;5.80;99.90;;;;;;5057323;28;20041;-79
2024/01/02 03:02:48;;;;;;;11.52;3.10;;;5.80;99.90;;;;;;5002036;28;20416;-82
2024/01/02 03:05:17;;;;;;;12.30;3.45;;;5.80;99.90;;;;;;5016809;28;20065;-78
2024/01/02 03:07:44;;;;;;;9.25;3.38;;;5.90;99.90;;;;;;5036848;28;20040;-81
2024/01/02 03:10:13;;;;;;;7.78;3.55;;;5.90;99.90;;;;;;5045797;28;20053;-83
2024/01/02 03:12:40;;;;;;;8.60;3.17;;;5.90;99.90;;;;;;5065661;28;20040;-84
2024/01/02 03:15:10;;;;;;;10.15;4.15;;;5.90;99.90;;;;;;5058430;28;20698;-80
2024/01/02 03:17:37;;;;;;;13.13;3.88;;;5.90;99.90;;;;;;5054288;28;20036;-78
2024/01/02 03:20:04;;;;;;;11.60;3.50;;;5.90;99.90;;;;;;5042660;28;20042;-79
2024/01/02 03:22:31;;;;;;;7.28;2.90;;;6.00;99.90;;;;;;5053730;28;20041;-80
2024/01/02 03:24:58;;;;;;;10.98;3.63;;;5.90;99.90;;;;;;5028461;28;20103;-81
2024/01/02 03:27:25;;;;;;;13.13;4.07;;;5.90;99.90;;;;;;5033759;28;20060;-81
2024/01/02 03:29:52;;;;;;;5.57;3.47;;;6.00;99.90;;;;;;5042261;28;20503;-82
2024/01/02 03:32:18;;;;;;;9.48;2.92;;;5.90;99.90;;;;;;5020840;28;20052;-79
2024/01/02 03:34:45;;;;;;;10.73;3.70;;;5.90;99.90;;;;;;5046779;28;20140;-82
2024/01/02 03:37:13;;;;;;;9.98;3.70;;;5.90;99.90;;;;;;5021698;28;20052;-80
2024/01/02 03:39:40;;;;;;;11.85;4.03;;;5.90;99.90;;;;;;5034328;28;20048;-80
2024/01/02 03:42:07;;;;;;;13.65;4.03;;;5.90;99.90;;;;;;5042476;28;20053;-82
2024/01/02 03:44:34;;;;;;;12.23;4.45;;;5.90;99.90;;;;;;5057951;28;20037;-81
2024/01/02 03:47:01;;;;;;;9.60;3.80;;;5.90;99.90;;;;;;5043801;28;20072;-82
2024/01/02 03:49:27;;;;;;;8.77;3.80;;;5.90;99.90;;;;;;5041244;28;20033;-81
2024/01/02 03:51:54;;;;;;;10.65;3.95;;;5.90;99.90;;;;;;5007064;28;20037;-81
2024/01/02 03:54:21;;;;;;;7.78;3.10;;;5.90;99.90;;;;;;5042099;28;20037;-81
2024/01/02 03:56:48;;;;;;;13.45;4.25;;;5.90;99.90;;;;;;5037993;28;20599;-81
2024/01/02 03:59:15;;;;;;;9.18;3.40;;;5.90;99.90;;;;;;5045337;28;20033;-80
2024/01/02 04:01:43;;;;;;;15.43;4.60;;;5.90;99.90;;;;;;5043530;28;20136;-81
2024/01/02 04:04:09;;;;;;;11.70;3.70;;;5.90;99.90;;;;;;5027041;28;20098;-80
2024/01/02 04:06:36;;;;;;;12.05;4.70;;;5.90;99.90;;;;;;5028424;28;20050;-82
2024/01/02 04:09:03;;;;;;;11.45;3.72;;;5.90;99.90;;;;;;4995390;28;20056;-81
2024/01/02 04:11:30;;;;;;;4.15;2.50;;;5.90;99.90;;;;;;5010697;28;20036;-81
2024/01/02 04:13:58;;;;;;;5.88;2.47;;;5.90;99.90;;;;;;5042027;28;20079;-84
2024/01/02 04:16:24;;;;;;;7.82;2.95;;;5.90;99.90;;;;;;5037869;28;20041;-79
2024/01/02 04:18:51;;;;;;;6.70;1.98;;;5.90;99.90;;;;;;5034074;28;20048;-80
2024/01/02 04:21:18;;;;;;;2.25;1.98;;;6.00;99.90;;;;;;5028709;28;20795;-81
2024/01/02 04:23:45;;;;;;;5.95;2.40;;;5.90;99.90;;;;;;5039525;28;20052;-80
2024/01/02 04:26:12;;;;;;;5.00;1.70;;;5.90;99.90;;;;;;5016735;28;20173;-82
2024/01/02 04:28:38;;;;;;;6.00;2.05;;;5.90;99.90;;;;;;5031927;28;20045;-81
2024/01/02 04:31:08;;;;;;;3.63;1.65;;;5.90;99.90;;;;;;5041063;28;20063;-80
2024/01/02 04:33:34;;;;;;;2.80;1.60;;;5.90;99.90;;;;;;5024619;28;20048;-81
2024/01/02 04:36:01;;;;;;;3.17;1.80;;;5.90;99.90;;;;;;5029925;28;20041;-80
2024/01/02 04:38:28;;;;;;;5.13;1.30;;;5.80;99.90;;;;;;5047206;28;20060;-81
2024/01/02 04:40:57;;;;;;;1.70;1.45;;;5.80;99.90;;;;;;5034740;28;20037;-82
2024/01/02 04:43:24;;;;;;;1.20;1.10;;;5.80;99.90;;;;;;5040759;28;20615;-80
2024/01/02 04:45:53;;;;;;;2.25;1.35;;;5.70;99.90;;;;;;5039765;28;20059;-81
2024/01/02 04:48:20;;;;;;;2.22;1.35;;;5.70;99.90;;;;;;5039837;28;20046;-79
2024/01/02 04:50:48;;;;;;;3.58;1.42;;;5.70;99.90;;;;;;5039219;28;20122;-83
2024/01/02 04:53:14;;;;;;;1.60;0.95;;;5.70;99.90;;;;;;5038036;28;20140;-81
2024/01/02 04:55:41;;;;;;;2.35;0.90;;;5.60;99.90;;;;;;5019799;28;20056;-82
2024/01/02 04:58:08;;;;;;;1.05;0.95;;;5.60;99.90;;;;;;5038327;28;20049;-84
2024/01/02 05:00:35;;;;;;;3.42;1.10;;;5.60;99.90;;;;;;5021382;28;20049;-81
2024/01/02 05:03:02;;;;;;;0.85;0.73;;;5.50;99.90;;;;;;5018323;28;20040;-81
2024/01/02 05:05:30;;;;;;;0.50;0.50;;;5.50;99.90;;;;;;5024721;28;20079;-81
2024/01/02 05:07:58;;;;;;;1.23;0.75;;;5.40;99.90;;;;;;5022600;28;20049;-82
2024/01/02 05:10:25;;;;;;;1.67;0.70;;;5.50;99.90;;;;;;5021246;28;20053;-81
2024/01/02 05:12:51;;;;;;;1.95;0.60;;;5.40;99.90;;;;;;5039443;28;20033;-81
2024/01/02 05:15:18;;;;;;;3.55;0.80;;;5.40;99.90;;;;;;5034565;28;20066;-81
2024/01/02 05:17:46;;;;;;;3.08;0.90;;;5.40;99.90;;;;;;5036967;28;20041;-82
2024/01/02 05:20:13;;;;;;;2.65;0.80;;;5.30;99.90;;;;;;5035748;28;20650;-81
2024/01/02 05:22:40;;;;;;;2.63;0.60;;;5.30;99.90;;;;;;5043420;28;20652;-80
2024/01/02 05:25:08;;;;;;;2.22;0.73;;;5.20;99.90;;;;;;5038566;28;20064;-80
2024/01/02 05:27:35;;;;;;;2.05;0.88;;;5.20;99.90;;;;;;5039950;28;20056;-80
2024/01/02 05:30:03;;;;;;;0.60;0.60;;;5.10;99.90;;;;;;5038360;28;20634;-82
2024/01/02 05:32:30;;;;;;;0.60;0.60;;;5.00;99.90;;;;;;5041401;28;20049;-81
2024/01/02 05:34:57;;;;;;;0.85;0.68;;;5.00;99.90;;;;;;5040637;28;20072;-80
2024/01/02 05:37:24;;;;;;;1.80;0.90;;;5.00;99.90;;;;;;5036803;28;20700;-81
2024/01/02 05:39:50;;;;;;;0.93;0.52;;;5.00;99.90;;;;;;5034401;28;20776;-80
2024/01/02 05:42:17;;;;;;;1.60;0.70;;;5.00;99.90;;;;;;4998319;28;20575;-81
2024/01/02 05:44:44;;;;;;;0.50;0.50;;;4.90;99.90;;;;;;5039625;28;20048;-81
2024/01/02 05:47:11;;;;;;;3.13;0.70;;;4.90;99.90;;;;;;5020661;28;20078;-80
2024/01/02 05:49:38;;;;;;;0.60;0.60;;;4.90;99.90;;;;;;5041032;28;20147;-82
2024/01/02 05:52:05;;;;;;;2.08;0.60;;;5.00;99.90;;;;;;5043418;28;20037;-81
2024/01/02 05:54:32;;;;;;;0.88;0.70;;;5.00;99.90;;;;;;5040914;28;20056;-81
2024/01/02 05:56:59;;;;;;;0.63;0.63;;;5.00;99.90;;;;;;5009336;28;20092;-80
2024/01/02 05:59:25;;;;;;;0.70;0.70;;;5.00;99.90;;;;;;5036654;28;20049;-79
2024/01/02 06:01:52;;;;;;;0.70;0.70;;;5.00;99.90;;;;;;5033101;28;20037;-82
2024/01/02 06:04:19;;;;;;;0.52;0.52;;;5.00;99.90;;;;;;5039749;28;20685;-80
2024/01/02 06:06:46;;;;;;;1.42;0.70;;;4.90;99.90;;;;;;5045045;28;20041;-82
2024/01/02 06:09:13;;;;;;;1.38;1.05;;;4.90;99.90;;;;;;5066435;28;20043;-82
2024/01/02 06:11:40;;;;;;;2.33;0.90;;;4.90;99.90;;;;;;5040538;28;20388;-82
2024/01/02 06:14:08;;;;;;;0.70;0.63;;;4.90;99.90;;;;;;5026611;28;20093;-80
2024/01/02 06:16:35;;;;;;;1.98;0.80;;;4.90;99.90;;;;;;5024719;28;20037;-82
2024/01/02 06:19:02;;;;;;;2.78;0.88;;;4.90;99.90;;;;;;5018825;28;20045;-80
2024/01/02 06:21:29;;;;;;;1.00;0.90;;;4.90;99.90;;;;;;5023022;28;20044;-82
2024/01/02 06:23:56;;;;;;;0.65;0.65;;;4.90;99.90;;;;;;5024592;28;20037;-81
2024/01/02 06:26:23;;;;;;;1.00;0.80;;;4.80;99.90;;;;;;5022281;28;20160;-81
2024/01/02 06:28:50;;;;;;;0.57;0.57;;;4.90;99.90;;;;;;5015774;28;20304;-81
2024/01/02 06:31:21;;;;;;;0.82;0.82;;;4.90;99.90;;;;;;5023458;28;20049;-80
2024/01/02 06:33:48;;;;;;;0.65;0.60;;;4.90;99.90;;;;;;4998468;28;20068;-82
2024/01/02 06:36:16;;;;;;;1.63;0.57;;;4.90;99.90;;;;;;5022691;28;20113;-81
2024/01/02 06:38:42;;;;;;;0.50;0.50;;;4.90;99.90;;;;;;5026665;28;20052;-79
2024/01/02 06:41:09;;;;;;;0.77;0.77;;;4.90;99.90;;;;;;5038160;28;20127;-79
2024/01/02 06:43:36;;;;;;;0.75;0.75;;;4.90;99.90;;;;;;5043636;28;20048;-80
2024/01/02 06:46:03;;;;;;;1.20;0.73;;;5.00;99.90;;;;;;5056936;28;20043;-84
2024/01/02 06:48:30;;;;;;;0.60;0.60;;;5.00;99.90;;;;;;5074129;28;20094;-83
2024/01/02 06:50:57;;;;;;;0.85;0.50;;;5.10;99.90;;;;;;5065545;28;20045;-80
2024/01/02 06:53:24;;;;;;;0.60;0.60;;;5.10;99.90;;;;;;5056615;28;20407;-79
2024/01/02 06:55:51;;;;;;;2.38;1.20;;;5.10;99.90;;;;;;5025425;28;20033;-79
2024/01/02 06:58:18;;;;;;;1.55;1.15;;;5.10;99.90;;;;;;5044798;28;20087;-80
2024/01/02 07:00:44;;;;;;;2.60;1.27;;;5.10;99.90;;;;;;5044604;28;20037;-80
2024/01/02 07:03:11;;;;;;;0.52;0.52;;;5.20;99.90;;;;;;5038240;28;20048;-82
2024/01/02 07:05:39;;;;;;;0.60;0.60;;;5.30;99.90;;;;;;5016510;28;20824;-81
2024/01/02 07:08:06;;;;;;;1.10;0.52;;;5.30;99.90;;;;;;5008192;28;20048;-81
2024/01/02 07:10:33;;;;;;;0.73;0.60;;;5.40;99.90;;;;;;4988988;28;20048;-80
2024/01/02 07:13:00;;;;;;;0.60;0.60;;;5.40;99.90;;;;;;5020283;28;20044;-81
2024/01/02 07:15:27;;;;;;;0.80;0.80;;;5.50;99.90;;;;;;5025209;28;20041;-80
2024/01/02 07:17:54;;;;;;;0.80;0.60;;;5.50;99.90;;;;;;5022121;28;20357;-81
2024/01/02 07:20:23;;;;;;;4.53;0.73;;;5.40;99.90;;;;;;5025567;28;20049;-82
2024/01/02 07:22:50;;;;;;;0.60;0.60;;;5.40;99.90;;;;;;5036955;28;20053;-83
2024/01/02 07:25:17;;;;;;;0.85;0.70;;;5.40;99.90;;;;;;5038587;28;20451;-81
2024/01/02 07:27:44;;;;;;;0.60;0.60;;;5.40;99.90;;;;;;5043415;28;20033;-82
2024/01/02 07:30:11;;;;;;;0.63;0.50;;;5.50;99.90;;;;;;5039561;28;20045;-84
2024/01/02 07:32:38;;;;;;;0.63;0.63;;;5.50;99.90;;;;;;5039686;28;20054;-83
2024/01/02 07:35:05;;;;;;;1.02;0.80;;;5.50;99.90;;;;;;5040410;28;20102;-81
2024/01/02 07:37:33;;;;;;;1.77;1.10;;;5.60;99.90;;;;;;5027103;28;20083;-79
2024/01/02 07:40:00;;;;;;;1.58;0.98;;;5.60;99.90;;;;;;5061576;28;20045;-79
2024/01/02 07:42:27;;;;;;;1.90;1.00;;;5.60;99.90;;;;;;5017154;28;20049;-80
2024/01/02 07:44:54;;;;;;;2.25;1.05;;;5.70;99.90;;;;;;5017890;28;20049;-79
2024/01/02 07:47:21;;;;;;;0.80;0.80;;;5.70;99.90;;;;;;5028082;28;20045;-79
2024/01/02 07:49:48;;;;;;;2.83;1.40;;;5.70;99.90;;;;;;5027730;28;20611;-80
2024/01/02 07:52:18;;;;;;;1.90;1.13;;;5.70;99.90;;;;;;5011358;28;20044;-81
2024/01/02 07:54:45;;;;;;;1.08;0.98;;;5.80;99.90;;;;;;5031833;28;20044;-80
2024/01/02 07:57:12;;;;;;;1.40;1.20;;;5.80;99.90;;;;;;5026493;28;20041;-81
2024/01/02 07:59:38;;;;;;;1.95;1.08;;;5.80;99.90;;;;;;5033090;28;20056;-80
2024/01/02 08:02:06;;;;;;;0.90;0.90;;;5.90;99.90;;;;;;5026874;28;20075;-80
2024/01/02 08:04:32;;;;;;;1.30;1.17;;;5.90;99.90;;;;;;5003109;28;20053;-79
2024/01/02 08:07:01;;;;;;;1.17;1.08;;;6.00;99.90;;;;;;5003360;28;20049;-79
2024/01/02 08:09:28;;;;;;;1.02;0.90;;;6.00;99.90;;;;;;5022782;28;20302;-79
2024/01/02 08:11:55;;;;;;;2.92;2.13;;;6.10;99.90;;;;;;5036434;28;20041;-79
2024/01/02 08:14:22;;;;;;;6.43;4.03;;;6.10;99.90;;;;;;5010093;28;20081;-80
2024/01/02 08:16:50;;;;;;;3.80;1.70;;;6.10;99.90;;;;;;5028288;28;20765;-80
2024/01/02 08:19:17;;;;;;;1.98;1.50;;;6.10;99.90;;;;;;5018354;28;20299;-81
2024/01/02 08:21:44;;;;;;;1.83;1.73;;;6.10;99.90;;;;;;5022261;28;20147;-80
2024/01/02 08:24:11;;;;;;;2.67;2.10;;;6.10;99.90;;;;;;5035873;28;20033;-79
2024/01/02 08:26:38;;;;;;;3.08;2.33;;;6.20;99.90;;;;;;5029384;28;20071;-80
2024/01/02 08:29:04;;;;;;;2.55;2.35;;;6.20;99.90;;;;;;5035633;28;20037;-80
2024/01/02 08:31:31;;;;;;;3.13;2.58;;;6.30;99.90;;;;;;5011778;28;20067;-80
2024/01/02 08:33:58;;;;;;;3.45;3.15;;;6.30;99.90;;;;;;5031101;28;20057;-79
2024/01/02 08:36:25;;;;;;;3.63;3.33;;;6.40;99.90;;;;;;5012364;28;20052;-79
2024/01/02 08:38:52;;;;;;;3.13;2.38;;;6.40;99.90;;;;;;5035126;28;20067;-80
2024/01/02 08:41:18;;;;;;;3.10;2.80;;;6.40;99.90;;;;;;5033857;28;20385;-81
2024/01/02 08:43:45;;;;;;;3.25;2.95;;;6.50;99.90;;;;;;5033934;28;20045;-82
2024/01/02 08:46:13;;;;;;;3.20;2.80;;;6.50;99.90;;;;;;5031904;28;20037;-80
2024/01/02 08:48:40;;;;;;;3.40;3.10;;;6.50;99.90;;;;;;5031635;28;20039;-79
2024/01/02 08:51:07;;;;;;;4.75;4.28;;;6.60;99.90;;;;;;5024904;28;20637;-80
2024/01/02 08:53:34;;;;;;;4.50;4.03;;;6.80;99.90;;;;;;5029470;28;20045;-79
2024/01/02 08:56:01;;;;;;;4.97;3.83;;;6.90;99.90;;;;;;5036173;28;20049;-80
2024/01/02 08:58:28;;;;;;;6.70;6.10;;;7.00;99.90;;;;;;5013046;28;20045;-79
2024/01/02 09:00:55;;;;;;;6.03;5.53;;;7.00;99.90;;;;;;5002507;28;20783;-80
2024/01/02 09:03:22;;;;;;;4.88;4.47;;;7.10;99.90;;;;;;5031706;28;20073;-80
2024/01/02 09:05:49;;;;;;;7.65;6.38;;;7.30;99.90;;;;;;5003107;28;20045;-79
2024/01/02 09:08:16;;;;;;;3.03;2.90;;;7.40;99.90;;;;;;5032539;28;20045;-81
2024/01/02 09:10:43;;;;;;;2.85;2.65;;;7.70;99.90;;;;;;5035085;28;20545;-80
2024/01/02 09:13:11;;;;;;;3.17;2.97;;;8.00;99.90;;;;;;5038513;28;20059;-80
2024/01/02 09:15:39;;;;;;;4.38;4.07;;;8.60;99.90;;;;;;5037633;28;20593;-79
2024/01/02 09:18:06;;;;;;;3.22;2.85;;;8.90;99.90;;;;;;5042256;28;20113;-79
2024/01/02 09:20:34;;;;;;;3.10;3.00;;;9.00;99.90;;;;;;5025679;28;20041;-80
2024/01/02 09:23:01;;;;;;;4.22;3.92;;;9.00;99.90;;;;;;5021093;28;20088;-80
2024/01/02 09:25:31;;;;;;;4.10;3.70;;;9.10;99.90;;;;;;5016007;28;20126;-80
2024/01/02 09:28:01;;;;;;;3.00;2.80;;;9.20;99.90;;;;;;5021411;28;20053;-80
2024/01/02 09:30:29;;;;;;;2.80;2.53;;;9.40;99.90;;;;;;5021713;28;20037;-81
2024/01/02 09:32:57;;;;;;;3.60;3.13;;;9.40;99.90;;;;;;5045377;28;20891;-80
2024/01/02 09:35:25;;;;;;;3.67;3.38;;;9.40;99.90;;;;;;5006411;28;20045;-81
2024/01/02 09:37:52;;;;;;;2.63;2.42;;;9.40;99.90;;;;;;5021961;28;20712;-80
2024/01/02 09:41:01;;;;;;;2.88;2.17;;;9.50;99.90;;;;;;5026978;28;20064;-82
2024/01/02 09:43:36;;;;;;;2.15;2.05;;;9.50;99.90;;;;;;5015132;28;20065;-82
2024/01/02 09:46:24;;;;;;;2.05;1.95;;;9.50;99.90;;;;;;5035827;28;20067;-81
2024/01/02 09:49:08;;;;;;;1.88;1.77;;;9.60;99.90;;;;;;5026699;28;21201;-81
2024/01/02 09:52:03;;;;;;;2.90;1.95;;;9.60;99.90;;;;;;5039898;28;20626;-81
2024/01/02 09:54:59;;;;;;;5.07;2.20;;;9.60;99.90;;;;;;5038441;28;20057;-80
2024/01/02 09:57:35;;;;;;;2.15;2.05;;;9.60;99.90;;;;;;5023691;28;20393;-83
2024/01/02 10:00:05;;;;;;;2.05;1.95;;;9.60;99.90;;;;;;5035638;28;20046;-80
2024/01/02 10:02:54;;;;;;;1.88;1.77;;;9.60;99.90;;;;;;5036739;28;20072;-81
2024/01/02 10:05:38;;;;;;;2.35;2.20;;;9.70;99.90;;;;;;5035717;28;20127;-85
2024/01/02 10:08:26;;;;;;;5.38;2.70;;;9.70;99.90;;;;;;5021965;28;20048;-81
2024/01/02 10:11:42;;;;;;;2.60;2.45;;;9.80;99.90;;;;;;5055265;28;20124;-85
2024/01/02 10:14:25;;;;;;;2.65;2.45;;;9.80;99.90;;;;;;5056364;28;20116;-82
2024/01/02 10:17:24;;;;;;;8.57;5.78;;;9.90;99.90;;;;;;5012047;28;20186;-82
2024/01/02 10:20:06;;;;;;;7.88;7.25;;;9.80;99.90;;;;;;5036379;28;20844;-81
2024/01/02 10:22:48;;;;;;;3.63;3.33;;;9.90;99.90;;;;;;5035824;28;20096;-84
2024/01/02 10:25:18;;;;;;;3.42;3.13;;;9.80;99.90;;;;;;5070268;28;20035;-83
2024/01/02 10:28:12;;;;;;;3.90;3.60;;;9.90;99.90;;;;;;5055289;28;20063;-80
2024/01/02 10:31:11;;;;;;;4.43;4.03;;;9.90;99.90;;;;;;5030007;28;20055;-80
2024/01/02 10:33:47;;;;;;;4.70;3.63;;;10.00;99.90;;;;;;5027580;28;20048;-81
2024/01/02 10:36:22;;;;;;;3.85;3.55;;;10.00;99.90;;;;;;5020974;28;20047;-81
2024/01/02 10:39:29;;;;;;;4.72;4.28;;;10.00;99.90;;;;;;5008498;28;20080;-81
2024/01/02 10:42:27;;;;;;;5.88;4.50;;;10.10;99.90;;;;;;5019080;28;20874;-81
2024/01/02 10:45:00;;;;;;;4.07;3.67;;;10.10;99.90;;;;;;5057287;28;20041;-81
2024/01/02 10:47:52;;;;;;;4.50;3.72;;;10.10;99.90;;;;;;5037269;28;20052;-81
2024/01/02 10:50:26;;;;;;;3.45;2.85;;;10.10;99.90;;;;;;5040648;28;20041;-84
2024/01/02 10:53:05;;;;;;;5.05;4.30;;;10.20;99.90;;;;;;5034277;28;20495;-81
2024/01/02 10:55:48;;;;;;;5.32;4.00;;;10.20;99.90;;;;;;5033906;28;20049;-81
2024/01/02 10:58:20;;;;;;;8.40;4.03;;;10.20;99.90;;;;;;5040706;28;20045;-84
2024/01/02 11:00:50;;;;;;;4.47;3.30;;;10.30;99.90;;;;;;5039898;28;20053;-80
2024/01/02 11:03:19;;;;;;;6.72;5.25;;;10.30;99.90;;;;;;5042288;28;20056;-82
2024/01/02 11:06:14;;;;;;;6.20;5.53;;;10.40;99.90;;;;;;5039990;28;21202;-81
2024/01/02 11:09:00;;;;;;;8.95;3.47;;;10.50;99.90;;;;;;5044613;28;20744;-81
2024/01/02 11:11:29;;;;;;;4.05;3.63;;;10.50;99.90;;;;;;5045578;28;20055;-83
2024/01/02 11:13:58;;;;;;;5.40;3.50;;;10.50;99.90;;;;;;5042479;28;20095;-81
2024/01/02 11:16:27;;;;;;;3.95;3.05;;;10.50;99.90;;;;;;5043028;28;20037;-83
2024/01/02 11:18:59;;;;;;;7.60;6.63;;;10.50;99.90;;;;;;5055841;28;20048;-82
2024/01/02 11:21:45;;;;;;;5.35;4.65;;;10.60;99.90;;;;;;5040203;28;20118;-84
2024/01/02 11:24:16;;;;;;;11.93;9.00;;;10.60;99.90;;;;;;5041279;28;20048;-81
2024/01/02 11:26:45;;;;;;;7.65;5.65;;;10.60;99.90;;;;;;5046907;28;20036;-80
2024/01/02 11:29:35;;;;;;;10.65;8.90;;;10.60;99.90;;;;;;5044170;28;20516;-80
2024/01/02 11:32:09;;;;;;;6.38;5.10;;;10.60;99.90;;;;;;5028828;28;20072;-82
2024/01/02 11:34:45;;;;;;;6.68;6.15;;;10.60;99.90;;;;;;5040784;28;20053;-81
2024/01/02 11:37:30;;;;;;;7.30;6.60;;;10.60;99.90;;;;;;5040246;28;20076;-82
2024/01/02 11:40:09;;;;;;;11.73;8.38;;;10.60;99.90;;;;;;5033656;28;20045;-82
2024/01/02 11:43:03;;;;;;;5.20;4.90;;;10.60;99.90;;;;;;5029594;28;20052;-81
2024/01/02 11:45:33;;;;;;;5.43;5.13;;;10.60;99.90;;;;;;5024694;28;20128;-83
2024/01/02 11:48:03;;;;;;;4.32;4.13;;;10.50;99.90;;;;;;5045850;28;20072;-82
2024/01/02 11:50:52;;;;;;;4.82;4.43;;;10.50;99.90;;;;;;5039880;28;20106;-84
2024/01/02 11:53:28;;;;;;;3.78;3.55;;;10.40;99.90;;;;;;5036152;28;20489;-81
2024/01/02 11:56:00;;;;;;;4.20;3.90;;;10.30;99.90;;;;;;5003917;28;20989;-82
2024/01/02 11:58:46;;;;;;;4.65;4.35;;;10.30;99.90;;;;;;5041994;28;20052;-82
2024/01/02 12:01:42;;;;;;;5.72;5.22;;;10.20;99.90;;;;;;5036520;28;20051;-82
2024/01/02 12:04:12;;;;;;;5.75;5.35;;;10.20;99.90;;;;;;5019875;28;20606;-83
2024/01/02 12:06:51;;;;;;;7.75;7.20;;;10.20;99.90;;;;;;5036624;28;20044;-82
2024/01/02 12:09:19;;;;;;;6.57;5.95;;;10.20;99.90;;;;;;5021757;28;20593;-83
2024/01/02 12:12:07;;;;;;;5.07;4.78;;;10.20;99.90;;;;;;5023871;28;20049;-82
2024/01/02 12:15:05;;;;;;;4.45;4.15;;;10.20;99.90;;;;;;5023744;28;20064;-82
2024/01/02 12:17:39;;;;;;;4.10;3.80;;;10.10;99.90;;;;;;5041894;28;20111;-87
2024/01/02 12:20:10;;;;;;;5.75;5.30;;;10.10;99.90;;;;;;5046929;28;20815;-81
2024/01/02 12:22:38;;;;;;;8.70;7.85;;;10.20;99.90;;;;;;5075132;28;20055;-83
2024/01/02 12:25:09;;;;;;;5.82;5.32;;;10.20;99.90;;;;;;5040498;28;20053;-80
2024/01/02 12:27:41;;;;;;;4.40;4.10;;;10.20;99.90;;;;;;5051756;28;20141;-81
2024/01/02 12:30:14;;;;;;;5.80;5.30;;;10.20;99.90;;;;;;5039800;28;20048;-81
2024/01/02 12:32:53;;;;;;;5.18;4.68;;;10.30;99.90;;;;;;5044260;28;20055;-82
2024/01/02 12:35:32;;;;;;;3.30;3.10;;;10.30;99.90;;;;;;5025708;28;20049;-79
2024/01/02 12:38:16;;;;;;;3.20;2.72;;;10.30;99.90;;;;;;5044414;28;20044;-81
2024/01/02 12:40:46;;;;;;;3.38;3.17;;;10.40;99.90;;;;;;5024974;28;20045;-80
2024/01/02 12:43:18;;;;;;;3.15;2.95;;;10.40;99.90;;;;;;5050770;28;20134;-79
2024/01/02 12:45:51;;;;;;;3.30;3.10;;;10.50;99.90;;;;;;5073968;28;20044;-82
2024/01/02 12:48:24;;;;;;;2.55;2.45;;;10.50;99.90;;;;;;5049324;28;20037;-80
2024/01/02 12:50:54;;;;;;;4.90;4.40;;;10.50;99.90;;;;;;5006891;28;20041;-81
2024/01/02 12:53:29;;;;;;;3.78;3.58;;;10.50;99.90;;;;;;5042233;28;20131;-79
2024/01/02 12:55:59;;;;;;;4.88;4.55;;;10.60;99.90;;;;;;5041737;28;20052;-80
2024/01/02 12:58:31;;;;;;;4.43;4.22;;;10.60;99.90;;;;;;5029638;28;20557;-81
2024/01/02 13:01:00;;;;;;;4.47;4.28;;;10.60;99.90;;;;;;5048087;28;20041;-80
2024/01/02 13:03:30;;;;;;;6.32;5.97;;;10.60;99.90;;;;;;5051726;28;20127;-80
2024/01/02 13:05:57;;;;;;;8.00;7.25;;;10.60;99.90;;;;;;5042043;28;20053;-79
2024/01/02 13:08:25;;;;;;;6.18;5.88;;;10.60;99.90;;;;;;5040224;28;20444;-81